sensor_id;sensor_type;location;lat;lon;timestamp;temperature;humidity
8939;DHT22;4504;48.810;9.172;2024-02-21T14:53:03;13.10;92.00
8939;DHT22;4504;48.810;9.172;2024-02-21T14:55:30;13.00;90.90
8939;DHT22;4504;48.810;9.172;2024-02-21T14:57:58;13.00;78.10
8939;DHT22;4504;48.810;9.172;2024-02-21T15:00:25;13.00;78.60
8939;DHT22;4504;48.810;9.172;2024-02-21T15:02:55;13.00;77.30
8939;DHT22;4504;48.810;9.172;2024-02-21T15:05:23;13.00;77.80
8939;DHT22;4504;48.810;9.172;2024-02-21T15:07:50;13.00;77.80
8939;DHT22;4504;48.810;9.172;2024-02-21T15:10:19;13.00;77.20
8939;DHT22;4504;48.810;9.172;2024-02-21T15:12:45;13.10;75.90
8939;DHT22;4504;48.810;9.172;2024-02-21T15:15:12;13.10;75.80
8939;DHT22;4504;48.810;9.172;2024-02-21T15:17:40;13.10;75.80
8939;DHT22;4504;48.810;9.172;2024-02-21T15:20:07;13.10;76.30
8939;DHT22;4504;48.810;9.172;2024-02-21T15:22:34;13.10;74.00
8939;DHT22;4504;48.810;9.172;2024-02-21T15:25:02;13.10;73.40
8939;DHT22;4504;48.810;9.172;2024-02-21T15:27:32;13.10;74.70
8939;DHT22;4504;48.810;9.172;2024-02-21T15:30:02;13.00;74.50
8939;DHT22;4504;48.810;9.172;2024-02-21T15:32:30;13.20;72.20
8939;DHT22;4504;48.810;9.172;2024-02-21T15:34:57;13.20;73.40
8939;DHT22;4504;48.810;9.172;2024-02-21T15:37:23;13.10;74.30
8939;DHT22;4504;48.810;9.172;2024-02-21T15:39:50;13.00;74.30
8939;DHT22;4504;48.810;9.172;2024-02-21T15:42:17;13.00;75.00
8939;DHT22;4504;48.810;9.172;2024-02-21T15:44:47;13.00;77.70
8939;DHT22;4504;48.810;9.172;2024-02-21T15:47:14;13.00;76.90
8939;DHT22;4504;48.810;9.172;2024-02-21T15:49:44;13.00;75.10
8939;DHT22;4504;48.810;9.172;2024-02-21T15:52:12;13.00;74.50
8939;DHT22;4504;48.810;9.172;2024-02-21T15:54:43;13.00;75.70
8939;DHT22;4504;48.810;9.172;2024-02-21T15:57:10;13.00;77.40
8939;DHT22;4504;48.810;9.172;2024-02-21T15:59:37;12.90;79.20
8939;DHT22;4504;48.810;9.172;2024-02-21T16:02:06;12.90;81.10
8939;DHT22;4504;48.810;9.172;2024-02-21T16:04:33;12.80;82.30
8939;DHT22;4504;48.810;9.172;2024-02-21T16:07:01;12.80;82.90
8939;DHT22;4504;48.810;9.172;2024-02-21T16:09:28;12.90;82.60
8939;DHT22;4504;48.810;9.172;2024-02-21T16:11:57;12.90;84.30
8939;DHT22;4504;48.810;9.172;2024-02-21T16:14:24;12.80;85.30
8939;DHT22;4504;48.810;9.172;2024-02-21T16:16:52;12.80;86.70
8939;DHT22;4504;48.810;9.172;2024-02-21T16:19:20;12.70;87.70
8939;DHT22;4504;48.810;9.172;2024-02-21T16:21:47;12.70;88.80
8939;DHT22;4504;48.810;9.172;2024-02-21T16:24:14;12.60;90.10
8939;DHT22;4504;48.810;9.172;2024-02-21T16:26:50;12.50;90.60
8939;DHT22;4504;48.810;9.172;2024-02-21T16:29:18;12.50;90.90
8939;DHT22;4504;48.810;9.172;2024-02-21T16:31:45;12.50;91.10
8939;DHT22;4504;48.810;9.172;2024-02-21T16:34:12;12.50;91.50
8939;DHT22;4504;48.810;9.172;2024-02-21T16:36:40;12.40;91.70
8939;DHT22;4504;48.810;9.172;2024-02-21T16:39:07;12.40;92.10
8939;DHT22;4504;48.810;9.172;2024-02-21T16:41:37;12.40;92.40
8939;DHT22;4504;48.810;9.172;2024-02-21T16:44:04;12.40;92.80
8939;DHT22;4504;48.810;9.172;2024-02-21T16:46:31;12.40;93.00
8939;DHT22;4504;48.810;9.172;2024-02-21T16:48:58;12.20;93.40
8939;DHT22;4504;48.810;9.172;2024-02-21T16:51:26;12.10;94.00
8939;DHT22;4504;48.810;9.172;2024-02-21T16:53:54;12.10;94.10
8939;DHT22;4504;48.810;9.172;2024-02-21T16:56:21;12.00;93.80
8939;DHT22;4504;48.810;9.172;2024-02-21T16:58:48;12.00;94.20
8939;DHT22;4504;48.810;9.172;2024-02-21T17:01:15;12.00;94.20
8939;DHT22;4504;48.810;9.172;2024-02-21T17:03:42;12.00;94.20
8939;DHT22;4504;48.810;9.172;2024-02-21T17:06:11;12.00;94.30
8939;DHT22;4504;48.810;9.172;2024-02-21T17:08:38;11.90;94.60
8939;DHT22;4504;48.810;9.172;2024-02-21T17:11:07;11.90;94.90
8939;DHT22;4504;48.810;9.172;2024-02-21T17:13:34;11.90;95.00
8939;DHT22;4504;48.810;9.172;2024-02-21T17:16:03;12.00;95.20
8939;DHT22;4504;48.810;9.172;2024-02-21T17:18:30;11.90;95.20
8939;DHT22;4504;48.810;9.172;2024-02-21T17:20:57;11.70;95.80
8939;DHT22;4504;48.810;9.172;2024-02-21T17:23:24;11.70;96.50
8939;DHT22;4504;48.810;9.172;2024-02-21T17:25:53;11.60;96.80
8939;DHT22;4504;48.810;9.172;2024-02-21T17:28:23;11.60;96.90
8939;DHT22;4504;48.810;9.172;2024-02-21T17:30:50;11.50;97.80
8939;DHT22;4504;48.810;9.172;2024-02-21T17:33:17;11.60;97.40
8939;DHT22;4504;48.810;9.172;2024-02-21T17:35:44;11.70;97.60
8939;DHT22;4504;48.810;9.172;2024-02-21T17:38:13;11.70;97.60
8939;DHT22;4504;48.810;9.172;2024-02-21T17:40:40;11.60;97.80
8939;DHT22;4504;48.810;9.172;2024-02-21T17:43:10;11.50;98.80
8939;DHT22;4504;48.810;9.172;2024-02-21T17:45:39;11.40;98.90
8939;DHT22;4504;48.810;9.172;2024-02-21T17:48:07;11.30;98.40
8939;DHT22;4504;48.810;9.172;2024-02-21T17:50:34;11.30;98.60
8939;DHT22;4504;48.810;9.172;2024-02-21T17:53:01;11.40;98.90
8939;DHT22;4504;48.810;9.172;2024-02-21T17:55:29;11.40;98.60
8939;DHT22;4504;48.810;9.172;2024-02-21T17:57:56;11.40;99.30
8939;DHT22;4504;48.810;9.172;2024-02-21T18:00:23;11.30;98.70
8939;DHT22;4504;48.810;9.172;2024-02-21T18:02:51;11.30;98.80
8939;DHT22;4504;48.810;9.172;2024-02-21T18:05:18;11.30;99.20
8939;DHT22;4504;48.810;9.172;2024-02-21T18:07:46;11.30;98.90
8939;DHT22;4504;48.810;9.172;2024-02-21T18:10:13;11.30;98.80
8939;DHT22;4504;48.810;9.172;2024-02-21T18:12:39;11.30;98.60
8939;DHT22;4504;48.810;9.172;2024-02-21T18:15:08;11.30;98.70
8939;DHT22;4504;48.810;9.172;2024-02-21T18:17:37;11.30;98.70
8939;DHT22;4504;48.810;9.172;2024-02-21T18:20:08;11.20;98.20
8939;DHT22;4504;48.810;9.172;2024-02-21T18:22:35;11.30;98.10
8939;DHT22;4504;48.810;9.172;2024-02-21T18:25:02;11.30;99.00
8939;DHT22;4504;48.810;9.172;2024-02-21T18:27:30;11.30;98.60
8939;DHT22;4504;48.810;9.172;2024-02-21T18:29:57;11.40;98.40
8939;DHT22;4504;48.810;9.172;2024-02-21T18:32:24;11.40;96.00
8939;DHT22;4504;48.810;9.172;2024-02-21T18:34:51;11.50;94.20
8939;DHT22;4504;48.810;9.172;2024-02-21T18:37:19;11.60;93.10
8939;DHT22;4504;48.810;9.172;2024-02-21T18:39:46;11.70;92.50
8939;DHT22;4504;48.810;9.172;2024-02-21T18:42:13;11.90;91.30
8939;DHT22;4504;48.810;9.172;2024-02-21T18:44:40;11.90;91.40
8939;DHT22;4504;48.810;9.172;2024-02-21T18:47:08;11.90;90.70
8939;DHT22;4504;48.810;9.172;2024-02-21T18:49:35;12.00;89.70
8939;DHT22;4504;48.810;9.172;2024-02-21T18:52:03;12.10;89.40
8939;DHT22;4504;48.810;9.172;2024-02-21T18:54:32;12.10;88.80
8939;DHT22;4504;48.810;9.172;2024-02-21T18:56:59;12.20;88.00
8939;DHT22;4504;48.810;9.172;2024-02-21T18:59:26;12.20;88.20
8939;DHT22;4504;48.810;9.172;2024-02-21T19:01:53;12.20;87.70
8939;DHT22;4504;48.810;9.172;2024-02-21T19:04:20;12.20;88.10
8939;DHT22;4504;48.810;9.172;2024-02-21T19:06:49;12.20;87.70
8939;DHT22;4504;48.810;9.172;2024-02-21T19:09:17;12.20;87.60
8939;DHT22;4504;48.810;9.172;2024-02-21T19:11:46;12.20;87.70
8939;DHT22;4504;48.810;9.172;2024-02-21T19:14:13;12.20;88.00
8939;DHT22;4504;48.810;9.172;2024-02-21T19:16:40;12.20;88.10
8939;DHT22;4504;48.810;9.172;2024-02-21T19:19:07;12.30;87.90
8939;DHT22;4504;48.810;9.172;2024-02-21T19:21:34;12.20;88.50
8939;DHT22;4504;48.810;9.172;2024-02-21T19:24:01;12.30;88.50
8939;DHT22;4504;48.810;9.172;2024-02-21T19:26:28;12.30;88.40
8939;DHT22;4504;48.810;9.172;2024-02-21T19:28:57;12.40;88.00
8939;DHT22;4504;48.810;9.172;2024-02-21T19:31:24;12.40;87.90
8939;DHT22;4504;48.810;9.172;2024-02-21T19:33:51;12.40;88.20
8939;DHT22;4504;48.810;9.172;2024-02-21T19:36:18;12.50;88.00
8939;DHT22;4504;48.810;9.172;2024-02-21T19:38:45;12.40;88.30
8939;DHT22;4504;48.810;9.172;2024-02-21T19:41:15;12.50;87.90
8939;DHT22;4504;48.810;9.172;2024-02-21T19:43:42;12.40;87.70
8939;DHT22;4504;48.810;9.172;2024-02-21T19:46:10;12.40;88.20
8939;DHT22;4504;48.810;9.172;2024-02-21T19:48:37;12.30;88.60
8939;DHT22;4504;48.810;9.172;2024-02-21T19:51:04;12.30;89.20
8939;DHT22;4504;48.810;9.172;2024-02-21T19:53:32;12.20;88.90
8939;DHT22;4504;48.810;9.172;2024-02-21T19:56:00;12.20;89.30
8939;DHT22;4504;48.810;9.172;2024-02-21T19:58:27;12.20;89.00
8939;DHT22;4504;48.810;9.172;2024-02-21T20:00:54;12.20;89.20
8939;DHT22;4504;48.810;9.172;2024-02-21T20:03:22;12.20;89.00
8939;DHT22;4504;48.810;9.172;2024-02-21T20:05:51;12.20;88.90
8939;DHT22;4504;48.810;9.172;2024-02-21T20:08:18;12.20;88.70
8939;DHT22;4504;48.810;9.172;2024-02-21T20:10:45;12.20;89.30
8939;DHT22;4504;48.810;9.172;2024-02-21T20:13:12;12.20;89.40
8939;DHT22;4504;48.810;9.172;2024-02-21T20:15:39;12.20;89.10
8939;DHT22;4504;48.810;9.172;2024-02-21T20:18:08;12.20;89.50
8939;DHT22;4504;48.810;9.172;2024-02-21T20:20:38;12.20;89.50
8939;DHT22;4504;48.810;9.172;2024-02-21T20:23:06;12.20;89.70
8939;DHT22;4504;48.810;9.172;2024-02-21T20:25:38;12.10;90.00
8939;DHT22;4504;48.810;9.172;2024-02-21T20:28:05;12.20;90.00
8939;DHT22;4504;48.810;9.172;2024-02-21T20:30:32;12.20;90.10
8939;DHT22;4504;48.810;9.172;2024-02-21T20:32:59;12.20;90.10
8939;DHT22;4504;48.810;9.172;2024-02-21T20:35:27;12.20;90.20
8939;DHT22;4504;48.810;9.172;2024-02-21T20:37:57;12.20;90.50
8939;DHT22;4504;48.810;9.172;2024-02-21T20:40:23;12.20;90.30
8939;DHT22;4504;48.810;9.172;2024-02-21T20:42:51;12.20;90.10
8939;DHT22;4504;48.810;9.172;2024-02-21T20:45:18;12.30;90.10
8939;DHT22;4504;48.810;9.172;2024-02-21T20:47:45;12.30;90.80
8939;DHT22;4504;48.810;9.172;2024-02-21T20:50:12;12.20;90.60
8939;DHT22;4504;48.810;9.172;2024-02-21T20:52:39;12.10;90.80
8939;DHT22;4504;48.810;9.172;2024-02-21T20:55:08;12.20;90.70
8939;DHT22;4504;48.810;9.172;2024-02-21T20:57:35;12.20;90.70
8939;DHT22;4504;48.810;9.172;2024-02-21T21:00:05;12.20;90.80
8939;DHT22;4504;48.810;9.172;2024-02-21T21:02:32;12.20;90.90
8939;DHT22;4504;48.810;9.172;2024-02-21T21:04:59;12.10;90.90
8939;DHT22;4504;48.810;9.172;2024-02-21T21:07:27;12.10;91.00
8939;DHT22;4504;48.810;9.172;2024-02-21T21:09:54;12.20;90.90
8939;DHT22;4504;48.810;9.172;2024-02-21T21:12:23;12.20;91.00
8939;DHT22;4504;48.810;9.172;2024-02-21T21:14:50;12.20;91.00
8939;DHT22;4504;48.810;9.172;2024-02-21T21:17:17;12.10;91.00
8939;DHT22;4504;48.810;9.172;2024-02-21T21:19:44;12.10;91.20
8939;DHT22;4504;48.810;9.172;2024-02-21T21:22:11;12.10;91.30
8939;DHT22;4504;48.810;9.172;2024-02-21T21:24:38;12.00;91.60
8939;DHT22;4504;48.810;9.172;2024-02-21T21:27:06;12.00;91.80
8939;DHT22;4504;48.810;9.172;2024-02-21T21:29:35;12.00;91.70
8939;DHT22;4504;48.810;9.172;2024-02-21T21:32:03;12.00;91.80
8939;DHT22;4504;48.810;9.172;2024-02-21T21:34:30;12.00;91.50
8939;DHT22;4504;48.810;9.172;2024-02-21T21:36:57;12.10;91.40
8939;DHT22;4504;48.810;9.172;2024-02-21T21:39:25;12.20;91.30
8939;DHT22;4504;48.810;9.172;2024-02-21T21:41:53;12.20;91.60
8939;DHT22;4504;48.810;9.172;2024-02-21T21:44:20;12.20;91.60
8939;DHT22;4504;48.810;9.172;2024-02-21T21:46:48;12.20;91.60
8939;DHT22;4504;48.810;9.172;2024-02-21T21:49:15;12.20;91.90
8939;DHT22;4504;48.810;9.172;2024-02-21T21:51:42;12.20;91.90
8939;DHT22;4504;48.810;9.172;2024-02-21T21:54:10;12.30;91.60
8939;DHT22;4504;48.810;9.172;2024-02-21T21:56:37;12.40;91.60
8939;DHT22;4504;48.810;9.172;2024-02-21T21:59:04;12.40;91.60
8939;DHT22;4504;48.810;9.172;2024-02-21T22:01:31;12.40;91.30
8939;DHT22;4504;48.810;9.172;2024-02-21T22:04:00;12.40;91.40
8939;DHT22;4504;48.810;9.172;2024-02-21T22:06:27;12.50;91.20
8939;DHT22;4504;48.810;9.172;2024-02-21T22:08:54;12.50;91.20
8939;DHT22;4504;48.810;9.172;2024-02-21T22:11:22;12.50;91.20
8939;DHT22;4504;48.810;9.172;2024-02-21T22:13:50;12.50;91.00
8939;DHT22;4504;48.810;9.172;2024-02-21T22:16:16;12.50;91.00
8939;DHT22;4504;48.810;9.172;2024-02-21T22:18:43;12.50;91.10
8939;DHT22;4504;48.810;9.172;2024-02-21T22:21:12;12.50;91.20
8939;DHT22;4504;48.810;9.172;2024-02-21T22:23:39;12.40;91.20
8939;DHT22;4504;48.810;9.172;2024-02-21T22:26:10;12.40;91.40
8939;DHT22;4504;48.810;9.172;2024-02-21T22:28:37;12.50;91.30
8939;DHT22;4504;48.810;9.172;2024-02-21T22:31:04;12.50;91.50
8939;DHT22;4504;48.810;9.172;2024-02-21T22:33:31;12.50;91.10
8939;DHT22;4504;48.810;9.172;2024-02-21T22:35:58;12.60;91.10
8939;DHT22;4504;48.810;9.172;2024-02-21T22:38:26;12.50;91.30
8939;DHT22;4504;48.810;9.172;2024-02-21T22:40:55;12.40;91.30
8939;DHT22;4504;48.810;9.172;2024-02-21T22:43:22;12.50;91.50
8939;DHT22;4504;48.810;9.172;2024-02-21T22:45:49;12.40;91.70
8939;DHT22;4504;48.810;9.172;2024-02-21T22:48:17;12.30;91.50
8939;DHT22;4504;48.810;9.172;2024-02-21T22:50:44;12.30;91.80
8939;DHT22;4504;48.810;9.172;2024-02-21T22:53:11;12.30;91.60
8939;DHT22;4504;48.810;9.172;2024-02-21T22:55:39;12.40;91.50
8939;DHT22;4504;48.810;9.172;2024-02-21T22:58:06;12.40;91.90
8939;DHT22;4504;48.810;9.172;2024-02-21T23:00:34;12.30;92.10
8939;DHT22;4504;48.810;9.172;2024-02-21T23:03:01;12.30;91.70
8939;DHT22;4504;48.810;9.172;2024-02-21T23:05:48;12.40;92.00
8939;DHT22;4504;48.810;9.172;2024-02-21T23:08:24;12.30;91.70
8939;DHT22;4504;48.810;9.172;2024-02-21T23:10:52;12.30;91.50
8939;DHT22;4504;48.810;9.172;2024-02-21T23:13:20;12.40;91.00
8939;DHT22;4504;48.810;9.172;2024-02-21T23:15:47;12.50;90.90
8939;DHT22;4504;48.810;9.172;2024-02-21T23:18:14;12.50;90.70
8939;DHT22;4504;48.810;9.172;2024-02-21T23:20:41;12.60;90.60
8939;DHT22;4504;48.810;9.172;2024-02-21T23:23:09;12.50;90.30
8939;DHT22;4504;48.810;9.172;2024-02-21T23:25:36;12.60;90.10
8939;DHT22;4504;48.810;9.172;2024-02-21T23:28:06;12.60;90.30
8939;DHT22;4504;48.810;9.172;2024-02-21T23:30:33;12.60;90.10
8939;DHT22;4504;48.810;9.172;2024-02-21T23:33:00;12.60;90.30
8939;DHT22;4504;48.810;9.172;2024-02-21T23:35:27;12.50;90.30
8939;DHT22;4504;48.810;9.172;2024-02-21T23:37:54;12.50;90.10
8939;DHT22;4504;48.810;9.172;2024-02-21T23:40:21;12.50;90.70
8939;DHT22;4504;48.810;9.172;2024-02-21T23:42:48;12.50;90.20
8939;DHT22;4504;48.810;9.172;2024-02-21T23:45:17;12.60;89.90
8939;DHT22;4504;48.810;9.172;2024-02-21T23:47:44;12.60;89.80
8939;DHT22;4504;48.810;9.172;2024-02-21T23:50:11;12.70;90.00
8939;DHT22;4504;48.810;9.172;2024-02-21T23:52:38;12.70;90.00
8939;DHT22;4504;48.810;9.172;2024-02-21T23:55:05;12.70;89.90
8939;DHT22;4504;48.810;9.172;2024-02-21T23:57:34;12.70;90.00
